createdAt,value
2018-01-30T00:01:56.886Z,7.20
2018-01-30T00:04:24.111Z,7.10
2018-01-30T00:06:50.731Z,7.10
2018-01-30T00:09:17.171Z,7.10
2018-01-30T00:11:43.728Z,7.10
2018-01-30T00:14:11.067Z,7.10
2018-01-30T00:16:37.595Z,7.00
2018-01-30T00:19:04.086Z,7.00
2018-01-30T00:21:30.567Z,7.00
2018-01-30T00:23:57.128Z,7.00
2018-01-30T00:26:24.774Z,6.90
2018-01-30T00:28:51.254Z,6.90
2018-01-30T00:31:17.731Z,6.90
2018-01-30T00:33:44.349Z,6.90
2018-01-30T00:36:10.844Z,6.90
2018-01-30T00:38:37.316Z,6.90
2018-01-30T00:41:03.965Z,6.90
2018-01-30T00:43:30.487Z,6.90
2018-01-30T00:45:57.044Z,6.90
2018-01-30T00:48:23.638Z,6.90
2018-01-30T00:50:50.165Z,6.90
2018-01-30T00:53:16.786Z,6.90
2018-01-30T00:55:44.139Z,6.90
2018-01-30T00:58:11.402Z,6.90
2018-01-30T01:00:37.872Z,6.90
2018-01-30T01:03:05.110Z,6.90
2018-01-30T01:05:31.656Z,6.90
2018-01-30T01:07:58.131Z,6.90
2018-01-30T01:10:25.382Z,6.90
2018-01-30T01:12:51.956Z,6.90
2018-01-30T01:15:18.522Z,6.90
2018-01-30T01:17:45.070Z,6.90
2018-01-30T01:20:11.725Z,6.90
2018-01-30T01:22:38.212Z,6.80
2018-01-30T01:25:04.663Z,6.90
2018-01-30T01:27:31.156Z,6.80
2018-01-30T01:29:58.363Z,6.80
2018-01-30T01:32:24.926Z,6.80
2018-01-30T01:34:52.127Z,6.90
2018-01-30T01:37:18.586Z,6.90
2018-01-30T01:39:45.132Z,6.90
2018-01-30T01:42:11.578Z,6.90
2018-01-30T01:44:38.857Z,6.90
2018-01-30T01:47:05.316Z,7.00
2018-01-30T01:49:31.797Z,7.00
2018-01-30T01:51:59.014Z,7.00
2018-01-30T01:54:25.491Z,7.00
2018-01-30T01:56:52.739Z,7.10
2018-01-30T01:59:19.958Z,7.10
2018-01-30T02:01:47.195Z,7.10
2018-01-30T02:04:14.602Z,7.00
2018-01-30T02:06:41.840Z,7.10
2018-01-30T02:09:09.043Z,7.10
2018-01-30T02:11:35.533Z,7.10
2018-01-30T02:14:02.711Z,7.10
2018-01-30T02:16:29.448Z,7.00
2018-01-30T02:18:55.944Z,7.10
2018-01-30T02:21:22.384Z,7.10
2018-01-30T02:23:48.864Z,7.10
2018-01-30T02:26:15.403Z,7.10
2018-01-30T02:28:41.848Z,7.10
2018-01-30T02:31:08.405Z,7.10
2018-01-30T02:33:34.874Z,7.10
2018-01-30T02:36:01.496Z,7.20
2018-01-30T02:38:28.754Z,7.10
2018-01-30T02:40:56.044Z,7.10
2018-01-30T02:43:22.544Z,7.10
2018-01-30T02:45:49.192Z,7.10
2018-01-30T02:48:15.682Z,7.10
2018-01-30T02:50:42.190Z,7.10
2018-01-30T02:53:08.644Z,7.10
2018-01-30T02:55:35.252Z,7.10
2018-01-30T02:58:01.754Z,7.10
2018-01-30T03:00:28.244Z,7.10
2018-01-30T03:02:54.685Z,7.10
2018-01-30T03:05:21.219Z,7.10
2018-01-30T03:07:47.716Z,7.10
2018-01-30T03:10:14.202Z,7.10
2018-01-30T03:12:40.760Z,7.10
2018-01-30T03:15:08.083Z,7.10
2018-01-30T03:17:34.520Z,7.00
2018-01-30T03:20:01.063Z,7.10
2018-01-30T03:22:27.508Z,7.10
2018-01-30T03:24:54.775Z,7.10
2018-01-30T03:27:22.254Z,7.10
2018-01-30T03:29:48.889Z,7.10
2018-01-30T03:32:15.387Z,7.00
2018-01-30T03:34:41.897Z,7.00
2018-01-30T03:37:08.335Z,7.00
2018-01-30T03:39:34.947Z,7.00
2018-01-30T03:42:01.378Z,6.90
2018-01-30T03:44:27.863Z,6.90
2018-01-30T03:46:55.111Z,6.80
2018-01-30T03:49:21.685Z,6.80
2018-01-30T03:51:48.182Z,6.80
2018-01-30T03:54:14.657Z,6.80
2018-01-30T03:56:41.140Z,6.70
2018-01-30T03:59:07.583Z,6.70
2018-01-30T04:01:34.080Z,6.70
2018-01-30T04:04:00.491Z,6.70
2018-01-30T04:06:27.061Z,6.70
2018-01-30T04:08:53.527Z,6.70
2018-01-30T04:11:20.769Z,6.60
2018-01-30T04:13:47.266Z,6.60
2018-01-30T04:16:13.733Z,6.50
2018-01-30T04:18:40.198Z,6.40
2018-01-30T04:21:06.707Z,6.40
2018-01-30T04:23:33.271Z,6.30
2018-01-30T04:26:00.124Z,6.30
2018-01-30T04:28:26.627Z,6.30
2018-01-30T04:30:53.835Z,6.20
2018-01-30T04:33:20.308Z,6.20
2018-01-30T04:35:47.547Z,6.10
2018-01-30T04:38:14.179Z,6.10
2018-01-30T04:40:40.680Z,6.10
2018-01-30T04:43:07.151Z,6.00
2018-01-30T04:45:33.645Z,6.10
2018-01-30T04:48:00.128Z,6.10
2018-01-30T04:50:26.628Z,6.10
2018-01-30T04:52:53.107Z,6.00
2018-01-30T04:55:20.363Z,6.00
2018-01-30T04:57:47.632Z,6.00
2018-01-30T05:00:17.180Z,6.00
2018-01-30T05:02:43.604Z,5.90
2018-01-30T05:05:10.060Z,6.00
2018-01-30T05:07:36.530Z,6.00
2018-01-30T05:10:02.969Z,6.00
2018-01-30T05:12:29.488Z,6.00
2018-01-30T05:14:56.715Z,6.00
2018-01-30T05:17:23.183Z,6.00
2018-01-30T05:19:49.614Z,6.00
2018-01-30T05:22:16.790Z,6.00
2018-01-30T05:24:43.337Z,6.00
2018-01-30T05:27:09.843Z,6.00
2018-01-30T05:29:36.295Z,6.00
2018-01-30T05:32:02.780Z,6.00
2018-01-30T05:34:29.347Z,5.90
2018-01-30T05:36:55.819Z,5.90
2018-01-30T05:39:23.023Z,5.90
2018-01-30T05:41:50.264Z,5.90
2018-01-30T05:44:17.523Z,5.90
2018-01-30T05:46:44.827Z,5.90
2018-01-30T05:49:11.308Z,5.90
2018-01-30T05:51:38.511Z,5.90
2018-01-30T05:54:07.125Z,5.80
2018-01-30T05:56:33.538Z,5.80
2018-01-30T05:59:00.052Z,5.80
2018-01-30T06:01:26.492Z,5.90
2018-01-30T06:03:52.943Z,6.00
2018-01-30T06:06:19.438Z,6.00
2018-01-30T06:08:45.904Z,6.00
2018-01-30T06:11:12.435Z,6.00
2018-01-30T06:13:38.920Z,5.90
2018-01-30T06:16:06.157Z,5.90
2018-01-30T06:18:33.433Z,5.90
2018-01-30T06:20:59.952Z,5.90
2018-01-30T06:23:27.199Z,5.80
2018-01-30T06:25:54.482Z,5.80
2018-01-30T06:28:21.023Z,5.80
2018-01-30T06:30:47.459Z,5.80
2018-01-30T06:33:14.007Z,5.80
2018-01-30T06:35:40.483Z,5.70
2018-01-30T06:38:07.683Z,5.80
2018-01-30T06:40:34.234Z,5.70
2018-01-30T06:43:00.691Z,5.70
2018-01-30T06:45:27.349Z,5.70
2018-01-30T06:47:54.607Z,5.70
2018-01-30T06:50:21.927Z,5.70
2018-01-30T06:52:48.419Z,5.70
2018-01-30T06:55:14.917Z,5.70
2018-01-30T06:57:42.127Z,5.70
2018-01-30T07:00:08.694Z,5.70
2018-01-30T07:02:35.303Z,5.70
2018-01-30T07:05:01.760Z,5.70
2018-01-30T07:07:28.299Z,5.60
2018-01-30T07:09:54.813Z,5.70
2018-01-30T07:12:21.306Z,5.70
2018-01-30T07:14:47.773Z,5.70
2018-01-30T07:17:14.255Z,5.70
2018-01-30T07:19:41.456Z,5.70
2018-01-30T07:22:07.988Z,5.70
2018-01-30T07:24:34.548Z,5.80
2018-01-30T07:27:01.065Z,5.80
2018-01-30T07:29:27.589Z,5.90
2018-01-30T07:31:54.044Z,5.90
2018-01-30T07:34:20.615Z,5.80
2018-01-30T07:36:48.233Z,5.70
2018-01-30T07:39:14.743Z,5.70
2018-01-30T07:41:41.357Z,5.60
2018-01-30T07:44:07.866Z,5.70
2018-01-30T07:46:34.365Z,5.80
2018-01-30T07:49:01.003Z,5.70
2018-01-30T07:51:27.488Z,5.80
2018-01-30T07:53:54.013Z,5.70
2018-01-30T07:56:21.306Z,5.70
2018-01-30T07:58:47.792Z,5.70
2018-01-30T08:01:15.054Z,5.70
2018-01-30T08:03:42.309Z,5.80
2018-01-30T08:06:09.717Z,5.80
2018-01-30T08:08:36.283Z,5.70
2018-01-30T08:11:02.840Z,5.70
2018-01-30T08:13:30.138Z,5.70
2018-01-30T08:15:56.623Z,5.70
2018-01-30T08:18:24.080Z,5.80
2018-01-30T08:20:50.608Z,5.80
2018-01-30T08:23:17.090Z,5.80
2018-01-30T08:25:43.873Z,6.00
2018-01-30T08:28:10.439Z,6.00
2018-01-30T08:30:36.996Z,6.00
2018-01-30T08:33:03.554Z,6.10
2018-01-30T08:35:30.116Z,6.10
2018-01-30T08:37:56.629Z,6.00
2018-01-30T08:40:23.098Z,5.80
2018-01-30T08:42:50.307Z,5.70
2018-01-30T08:45:16.929Z,5.70
2018-01-30T08:47:43.536Z,5.80
2018-01-30T08:50:10.061Z,5.80
2018-01-30T08:52:37.470Z,5.80
2018-01-30T08:55:04.029Z,5.80
2018-01-30T08:57:30.516Z,5.90
2018-01-30T08:59:57.118Z,5.90
2018-01-30T09:02:23.705Z,6.00
2018-01-30T09:04:50.175Z,6.10
2018-01-30T09:07:16.691Z,6.20
2018-01-30T09:09:43.162Z,6.10
2018-01-30T09:12:12.027Z,6.00
2018-01-30T09:14:38.521Z,6.00
2018-01-30T09:17:05.096Z,6.00
2018-01-30T09:19:31.649Z,5.90
2018-01-30T09:21:58.177Z,5.90
2018-01-30T09:24:24.920Z,5.70
2018-01-30T09:26:51.554Z,5.70
2018-01-30T09:29:18.043Z,5.70
2018-01-30T09:31:44.516Z,5.70
2018-01-30T09:34:11.067Z,5.60
2018-01-30T09:36:38.300Z,5.70
2018-01-30T09:39:04.881Z,5.70
2018-01-30T09:41:31.734Z,5.80
2018-01-30T09:43:58.279Z,6.00
2018-01-30T09:46:24.817Z,6.10
2018-01-30T09:48:51.457Z,6.00
2018-01-30T09:51:18.024Z,6.00
2018-01-30T09:53:44.572Z,6.10
2018-01-30T09:56:11.069Z,6.20
2018-01-30T09:58:37.563Z,6.10
2018-01-30T10:01:04.795Z,6.30
2018-01-30T10:03:31.438Z,6.30
2018-01-30T10:05:57.888Z,6.40
2018-01-30T10:08:25.080Z,6.50
2018-01-30T10:10:51.675Z,6.50
2018-01-30T10:13:18.942Z,6.70
2018-01-30T10:15:45.400Z,6.70
2018-01-30T10:18:11.947Z,6.90
2018-01-30T10:20:38.473Z,7.20
2018-01-30T10:23:05.095Z,7.40
2018-01-30T10:25:31.608Z,7.40
2018-01-30T10:27:58.094Z,7.30
2018-01-30T10:30:24.570Z,7.60
2018-01-30T10:32:51.166Z,7.80
2018-01-30T10:35:17.682Z,8.00
2018-01-30T10:37:44.180Z,7.90
2018-01-30T10:40:10.769Z,7.90
2018-01-30T10:42:37.382Z,7.90
2018-01-30T10:45:03.955Z,7.80
2018-01-30T10:47:30.461Z,8.00
2018-01-30T10:49:56.992Z,8.30
2018-01-30T10:52:23.460Z,8.60
2018-01-30T10:54:50.063Z,8.90
2018-01-30T10:57:16.584Z,9.10
2018-01-30T10:59:43.051Z,9.50
2018-01-30T11:02:09.578Z,10.00
2018-01-30T11:04:36.162Z,10.60
2018-01-30T11:07:02.816Z,11.50
2018-01-30T11:09:29.291Z,12.00
2018-01-30T11:11:55.865Z,13.10
2018-01-30T11:14:23.261Z,13.20
2018-01-30T11:16:49.752Z,13.10
2018-01-30T11:19:17.744Z,12.60
2018-01-30T11:21:44.253Z,12.60
2018-01-30T11:24:11.518Z,11.70
2018-01-30T11:26:38.812Z,10.60
2018-01-30T11:29:06.205Z,10.10
2018-01-30T11:31:32.746Z,10.10
2018-01-30T11:33:59.288Z,10.00
2018-01-30T11:36:26.553Z,9.60
2018-01-30T11:38:53.854Z,9.20
2018-01-30T11:41:22.436Z,9.20
2018-01-30T11:43:49.962Z,9.20
2018-01-30T11:46:16.768Z,9.20
2018-01-30T11:48:43.235Z,9.30
2018-01-30T11:51:09.775Z,9.40
2018-01-30T11:53:36.332Z,9.50
2018-01-30T11:56:02.825Z,10.00
2018-01-30T11:58:30.735Z,10.10
2018-01-30T12:00:57.978Z,10.10
2018-01-30T12:03:25.236Z,9.70
2018-01-30T12:05:53.039Z,9.60
2018-01-30T12:08:20.658Z,9.60
2018-01-30T12:10:47.217Z,9.40
2018-01-30T12:13:15.759Z,9.70
2018-01-30T12:15:42.238Z,9.80
2018-01-30T12:18:08.810Z,10.10
2018-01-30T12:20:58.558Z,10.10
2018-01-30T12:23:25.012Z,10.10
2018-01-30T12:25:52.369Z,10.20
2018-01-30T12:28:19.670Z,10.10
2018-01-30T12:30:46.174Z,10.10
2018-01-30T12:33:12.644Z,9.70
2018-01-30T12:35:39.398Z,9.60
2018-01-30T12:38:05.886Z,9.50
2018-01-30T12:40:32.352Z,9.40
2018-01-30T12:42:58.862Z,9.50
2018-01-30T12:45:25.328Z,9.40
2018-01-30T12:47:51.809Z,9.10
2018-01-30T12:50:19.025Z,8.60
2018-01-30T12:52:45.554Z,8.60
2018-01-30T12:55:12.067Z,8.60
2018-01-30T12:57:39.419Z,8.80
2018-01-30T13:00:06.079Z,8.80
2018-01-30T13:02:32.526Z,8.70
2018-01-30T13:04:58.999Z,8.60
2018-01-30T13:07:25.514Z,8.50
2018-01-30T13:09:52.743Z,8.60
2018-01-30T13:12:19.320Z,8.60
2018-01-30T13:14:45.788Z,8.80
2018-01-30T13:17:12.309Z,8.90
2018-01-30T13:19:38.800Z,9.00
2018-01-30T13:22:06.027Z,8.60
2018-01-30T13:24:32.570Z,8.60
2018-01-30T13:26:59.064Z,8.30
2018-01-30T13:29:25.620Z,8.20
2018-01-30T13:31:52.124Z,8.20
2018-01-30T13:34:18.679Z,8.10
2018-01-30T13:36:45.222Z,8.20
2018-01-30T13:39:11.720Z,8.40
2018-01-30T13:41:38.255Z,8.80
2018-01-30T13:44:04.875Z,9.00
2018-01-30T13:46:31.419Z,10.30
2018-01-30T13:48:57.895Z,11.80
2018-01-30T13:51:24.881Z,13.70
2018-01-30T13:53:52.206Z,15.90
2018-01-30T13:56:18.724Z,15.80
2018-01-30T13:58:45.281Z,16.50
2018-01-30T14:01:11.858Z,17.80
2018-01-30T14:03:38.447Z,18.30
2018-01-30T14:06:08.942Z,17.90
2018-01-30T14:08:35.446Z,16.80
2018-01-30T14:11:02.671Z,13.30
2018-01-30T14:13:29.517Z,13.20
2018-01-30T14:15:56.053Z,11.90
2018-01-30T14:18:22.620Z,11.00
2018-01-30T14:20:49.935Z,9.90
2018-01-30T14:23:16.468Z,9.90
2018-01-30T14:25:42.999Z,9.60
2018-01-30T14:28:09.520Z,9.30
2018-01-30T14:30:36.090Z,9.00
2018-01-30T14:33:02.715Z,8.90
2018-01-30T14:35:29.198Z,8.70
2018-01-30T14:37:55.787Z,8.70
2018-01-30T14:40:22.427Z,8.70
2018-01-30T14:42:49.296Z,8.80
2018-01-30T14:45:16.663Z,9.30
2018-01-30T14:47:44.011Z,9.20
2018-01-30T14:50:12.711Z,9.10
2018-01-30T14:52:39.403Z,9.10
2018-01-30T14:55:06.772Z,8.70
2018-01-30T14:57:33.501Z,8.70
2018-01-30T15:00:00.863Z,8.40
2018-01-30T15:02:28.161Z,8.30
2018-01-30T15:04:54.712Z,8.30
2018-01-30T15:07:21.276Z,8.30
2018-01-30T15:09:47.783Z,8.20
2018-01-30T15:12:15.001Z,8.10
2018-01-30T15:14:42.287Z,8.00
2018-01-30T15:17:08.823Z,8.00
2018-01-30T15:19:35.476Z,8.00
2018-01-30T15:22:03.519Z,8.00
2018-01-30T15:24:30.931Z,7.90
2018-01-30T15:26:57.522Z,7.80
2018-01-30T15:29:24.126Z,7.90
2018-01-30T15:31:51.451Z,7.80
2018-01-30T15:34:18.070Z,7.80
2018-01-30T15:36:44.663Z,7.80
2018-01-30T15:39:12.173Z,7.70
2018-01-30T15:41:38.779Z,7.70
2018-01-30T15:44:05.385Z,7.60
2018-01-30T15:46:31.901Z,7.60
2018-01-30T15:48:59.134Z,7.50
2018-01-30T15:51:25.834Z,7.50
2018-01-30T15:53:52.343Z,7.50
2018-01-30T15:56:19.603Z,7.30
2018-01-30T15:58:46.190Z,7.40
2018-01-30T16:01:12.853Z,7.30
2018-01-30T16:03:40.757Z,7.40
2018-01-30T16:06:07.900Z,7.40
2018-01-30T16:08:34.486Z,7.40
2018-01-30T16:11:01.023Z,7.40
2018-01-30T16:13:28.162Z,7.40
2018-01-30T16:15:54.795Z,7.40
2018-01-30T16:18:21.595Z,7.40
2018-01-30T16:20:48.157Z,7.40
2018-01-30T16:23:14.685Z,7.30
2018-01-30T16:25:42.123Z,7.30
2018-01-30T16:28:08.694Z,7.10
2018-01-30T16:30:36.149Z,7.30
2018-01-30T16:33:02.823Z,7.20
2018-01-30T16:35:29.333Z,7.20
2018-01-30T16:37:56.589Z,7.20
2018-01-30T16:40:23.419Z,7.20
2018-01-30T16:42:50.817Z,7.20
2018-01-30T16:45:18.464Z,7.10
2018-01-30T16:47:44.961Z,7.10
2018-01-30T16:50:11.447Z,7.10
2018-01-30T16:52:38.096Z,7.10
2018-01-30T16:55:04.714Z,7.10
2018-01-30T16:57:31.279Z,7.10
2018-01-30T16:59:58.888Z,7.00
2018-01-30T17:02:25.499Z,7.00
2018-01-30T17:04:52.133Z,7.00
2018-01-30T17:07:18.726Z,7.00
2018-01-30T17:09:46.125Z,7.00
2018-01-30T17:12:12.930Z,7.00
2018-01-30T17:14:40.343Z,7.00
2018-01-30T17:17:07.055Z,7.00
2018-01-30T17:19:33.684Z,7.00
2018-01-30T17:22:00.302Z,7.00
2018-01-30T17:24:26.819Z,7.00
2018-01-30T17:26:53.435Z,7.00
2018-01-30T17:29:20.062Z,6.90
2018-01-30T17:31:46.629Z,6.80
2018-01-30T17:34:13.203Z,6.80
2018-01-30T17:36:39.848Z,6.70
2018-01-30T17:39:06.444Z,6.70
2018-01-30T17:41:33.336Z,6.70
2018-01-30T17:44:01.326Z,6.80
2018-01-30T17:46:27.926Z,6.80
2018-01-30T17:48:54.432Z,6.80
2018-01-30T17:51:21.296Z,6.70
2018-01-30T17:53:48.606Z,6.70
2018-01-30T17:56:15.195Z,6.70
2018-01-30T17:58:41.987Z,6.70
2018-01-30T18:01:08.547Z,6.80
2018-01-30T18:03:35.859Z,6.60
2018-01-30T18:06:02.444Z,6.60
2018-01-30T18:08:28.906Z,6.60
2018-01-30T18:10:55.470Z,6.60
2018-01-30T18:13:22.577Z,6.50
2018-01-30T18:15:49.317Z,6.50
2018-01-30T18:18:17.044Z,6.60
2018-01-30T18:20:43.573Z,6.50
2018-01-30T18:23:10.105Z,6.10
2018-01-30T18:25:36.575Z,6.00
2018-01-30T18:28:03.180Z,5.90
2018-01-30T18:30:30.010Z,5.90
2018-01-30T18:32:57.502Z,6.00
2018-01-30T18:35:24.868Z,6.10
2018-01-30T18:37:52.187Z,6.00
2018-01-30T18:40:18.747Z,6.00
2018-01-30T18:42:46.473Z,6.20
2018-01-30T18:45:13.988Z,6.10
2018-01-30T18:47:40.498Z,6.10
2018-01-30T18:50:06.994Z,6.30
2018-01-30T18:52:33.714Z,6.20
2018-01-30T18:55:00.199Z,6.30
2018-01-30T18:57:26.751Z,6.20
2018-01-30T18:59:53.243Z,6.30
2018-01-30T19:02:19.912Z,6.30
2018-01-30T19:04:46.743Z,6.40
2018-01-30T19:07:13.287Z,6.30
2018-01-30T19:09:39.824Z,6.30
2018-01-30T19:12:06.983Z,6.30
2018-01-30T19:14:34.834Z,6.20
2018-01-30T19:17:01.590Z,6.20
2018-01-30T19:19:28.163Z,6.20
2018-01-30T19:21:54.780Z,6.20
2018-01-30T19:24:21.740Z,6.10
2018-01-30T19:26:48.952Z,6.10
2018-01-30T19:29:15.786Z,6.10
2018-01-30T19:31:43.976Z,6.20
2018-01-30T19:34:10.473Z,6.20
2018-01-30T19:36:37.035Z,6.10
2018-01-30T19:39:03.562Z,6.10
2018-01-30T19:41:30.872Z,6.10
2018-01-30T19:43:57.334Z,6.10
2018-01-30T19:46:23.863Z,6.10
2018-01-30T19:48:50.454Z,6.00
2018-01-30T19:51:17.022Z,6.10
2018-01-30T19:53:43.546Z,6.10
2018-01-30T19:56:10.299Z,6.00
2018-01-30T19:58:37.055Z,5.90
2018-01-30T20:01:03.559Z,6.00
2018-01-30T20:03:30.933Z,6.00
2018-01-30T20:05:58.336Z,6.00
2018-01-30T20:08:25.700Z,6.00
2018-01-30T20:10:52.447Z,6.00
2018-01-30T20:13:19.214Z,6.00
2018-01-30T20:15:45.728Z,5.90
2018-01-30T20:18:12.403Z,5.90
2018-01-30T20:20:40.387Z,5.90
2018-01-30T20:23:07.102Z,5.90
2018-01-30T20:25:34.536Z,5.90
2018-01-30T20:28:01.092Z,5.90
2018-01-30T20:30:27.673Z,6.00
2018-01-30T20:32:54.948Z,5.90
2018-01-30T20:35:21.687Z,5.90
2018-01-30T20:37:49.082Z,5.80
2018-01-30T20:40:16.369Z,5.80
2018-01-30T20:42:45.172Z,5.80
2018-01-30T20:45:12.122Z,5.80
2018-01-30T20:50:35.495Z,5.80
2018-01-30T20:53:02.932Z,5.80
2018-01-30T20:55:29.527Z,5.80
2018-01-30T20:57:56.087Z,5.60
2018-01-30T21:00:23.557Z,5.80
2018-01-30T21:02:50.175Z,5.70
2018-01-30T21:05:17.274Z,5.80
2018-01-30T21:07:43.911Z,5.80
2018-01-30T21:10:11.414Z,5.90
2018-01-30T21:12:38.696Z,5.90
2018-01-30T21:15:05.303Z,5.80
2018-01-30T21:17:31.899Z,5.80
2018-01-30T21:19:58.395Z,5.80
2018-01-30T21:22:24.952Z,5.70
2018-01-30T21:24:52.643Z,5.90
2018-01-30T21:27:19.505Z,5.90
2018-01-30T21:29:46.451Z,6.10
2018-01-30T21:32:12.986Z,6.30
2018-01-30T21:34:39.527Z,6.30
2018-01-30T21:37:06.345Z,6.40
2018-01-30T21:39:33.622Z,6.50
2018-01-30T21:42:00.203Z,6.50
2018-01-30T21:44:27.394Z,6.40
2018-01-30T21:46:54.293Z,6.40
2018-01-30T21:49:20.953Z,6.40
2018-01-30T21:51:47.396Z,6.40
2018-01-30T21:54:18.413Z,6.40
2018-01-30T21:56:41.142Z,6.40
2018-01-30T21:59:08.323Z,6.40
2018-01-30T22:01:36.466Z,6.40
2018-01-30T22:04:04.147Z,6.50
2018-01-30T22:06:30.616Z,6.50
2018-01-30T22:08:57.945Z,6.50
2018-01-30T22:11:24.371Z,6.50
2018-01-30T22:13:50.872Z,6.50
2018-01-30T22:16:18.151Z,6.40
2018-01-30T22:18:44.675Z,6.40
2018-01-30T22:21:11.261Z,6.40
2018-01-30T22:23:37.748Z,6.40
2018-01-30T22:26:04.178Z,6.40
2018-01-30T22:28:31.381Z,6.50
2018-01-30T22:30:57.809Z,6.50
2018-01-30T22:33:24.261Z,6.50
2018-01-30T22:35:50.693Z,6.60
2018-01-30T22:38:17.180Z,6.50
2018-01-30T22:40:43.576Z,6.40
2018-01-30T22:43:10.079Z,6.20
2018-01-30T22:45:36.532Z,6.20
